sensor_id;sensor_type;location;lat;lon;timestamp;P1;durP1;ratioP1;P2;durP2;ratioP2
2658;SDS011;1339;53.304;10.406;2023-04-01T00:01:02;5.28;;;4.03;;
2658;SDS011;1339;53.304;10.406;2023-04-01T00:03:29;3.78;;;3.40;;
2658;SDS011;1339;53.304;10.406;2023-04-01T00:05:58;4.30;;;2.83;;
2658;SDS011;1339;53.304;10.406;2023-04-01T00:08:25;3.22;;;2.92;;
2658;SDS011;1339;53.304;10.406;2023-04-01T00:10:54;3.13;;;2.92;;
2658;SDS011;1339;53.304;10.406;2023-04-01T00:13:21;3.40;;;3.00;;
2658;SDS011;1339;53.304;10.406;2023-04-01T00:15:49;5.43;;;3.53;;
2658;SDS011;1339;53.304;10.406;2023-04-01T00:18:16;6.93;;;3.50;;
2658;SDS011;1339;53.304;10.406;2023-04-01T00:20:44;4.03;;;3.30;;
2658;SDS011;1339;53.304;10.406;2023-04-01T00:23:11;3.67;;;3.17;;
2658;SDS011;1339;53.304;10.406;2023-04-01T00:25:38;3.47;;;3.17;;
2658;SDS011;1339;53.304;10.406;2023-04-01T00:28:06;2.55;;;2.35;;
2658;SDS011;1339;53.304;10.406;2023-04-01T00:30:33;3.90;;;3.50;;
2658;SDS011;1339;53.304;10.406;2023-04-01T00:33:00;4.07;;;3.67;;
2658;SDS011;1339;53.304;10.406;2023-04-01T00:35:27;7.05;;;3.60;;
2658;SDS011;1339;53.304;10.406;2023-04-01T00:37:54;6.25;;;3.50;;
2658;SDS011;1339;53.304;10.406;2023-04-01T00:40:25;3.97;;;2.88;;
2658;SDS011;1339;53.304;10.406;2023-04-01T00:42:53;5.80;;;3.30;;
2658;SDS011;1339;53.304;10.406;2023-04-01T00:45:27;4.07;;;2.90;;
2658;SDS011;1339;53.304;10.406;2023-04-01T00:47:54;5.70;;;4.25;;
2658;SDS011;1339;53.304;10.406;2023-04-01T00:50:22;7.30;;;3.45;;
2658;SDS011;1339;53.304;10.406;2023-04-01T00:52:49;4.95;;;3.38;;
2658;SDS011;1339;53.304;10.406;2023-04-01T00:55:16;4.90;;;3.17;;
2658;SDS011;1339;53.304;10.406;2023-04-01T00:57:45;4.13;;;3.15;;
2658;SDS011;1339;53.304;10.406;2023-04-01T01:00:12;3.92;;;3.50;;
2658;SDS011;1339;53.304;10.406;2023-04-01T01:02:42;6.70;;;3.83;;
2658;SDS011;1339;53.304;10.406;2023-04-01T01:05:11;6.25;;;3.70;;
2658;SDS011;1339;53.304;10.406;2023-04-01T01:07:38;6.03;;;4.07;;
2658;SDS011;1339;53.304;10.406;2023-04-01T01:10:09;5.82;;;5.22;;
2658;SDS011;1339;53.304;10.406;2023-04-01T01:12:39;5.88;;;3.35;;
2658;SDS011;1339;53.304;10.406;2023-04-01T01:15:09;5.25;;;3.90;;
2658;SDS011;1339;53.304;10.406;2023-04-01T01:17:42;8.20;;;4.60;;
2658;SDS011;1339;53.304;10.406;2023-04-01T01:22:57;3.35;;;3.05;;
2658;SDS011;1339;53.304;10.406;2023-04-01T01:25:32;4.65;;;3.10;;
2658;SDS011;1339;53.304;10.406;2023-04-01T01:28:10;3.65;;;2.80;;
2658;SDS011;1339;53.304;10.406;2023-04-01T01:30:43;4.30;;;3.90;;
2658;SDS011;1339;53.304;10.406;2023-04-01T01:35:57;6.80;;;3.40;;
2658;SDS011;1339;53.304;10.406;2023-04-01T01:38:26;6.65;;;2.80;;
2658;SDS011;1339;53.304;10.406;2023-04-01T01:40:55;4.03;;;2.92;;
2658;SDS011;1339;53.304;10.406;2023-04-01T01:43:24;3.65;;;3.25;;
2658;SDS011;1339;53.304;10.406;2023-04-01T01:45:53;4.95;;;3.35;;
2658;SDS011;1339;53.304;10.406;2023-04-01T01:48:21;3.75;;;2.80;;
2658;SDS011;1339;53.304;10.406;2023-04-01T01:50:48;4.10;;;3.22;;
2658;SDS011;1339;53.304;10.406;2023-04-01T01:53:18;3.03;;;2.72;;
2658;SDS011;1339;53.304;10.406;2023-04-01T01:55:45;5.63;;;3.60;;
2658;SDS011;1339;53.304;10.406;2023-04-01T01:58:14;3.70;;;2.60;;
2658;SDS011;1339;53.304;10.406;2023-04-01T02:00:43;4.35;;;3.17;;
2658;SDS011;1339;53.304;10.406;2023-04-01T02:03:11;3.70;;;3.40;;
2658;SDS011;1339;53.304;10.406;2023-04-01T02:05:39;3.38;;;2.80;;
2658;SDS011;1339;53.304;10.406;2023-04-01T02:08:07;2.38;;;2.17;;
2658;SDS011;1339;53.304;10.406;2023-04-01T02:10:39;4.50;;;3.22;;
2658;SDS011;1339;53.304;10.406;2023-04-01T02:13:07;3.58;;;2.72;;
2658;SDS011;1339;53.304;10.406;2023-04-01T02:15:37;5.90;;;2.55;;
2658;SDS011;1339;53.304;10.406;2023-04-01T02:18:06;3.88;;;3.50;;
2658;SDS011;1339;53.304;10.406;2023-04-01T02:20:34;2.70;;;2.50;;
2658;SDS011;1339;53.304;10.406;2023-04-01T02:23:02;2.22;;;1.88;;
2658;SDS011;1339;53.304;10.406;2023-04-01T02:25:30;4.20;;;3.33;;
2658;SDS011;1339;53.304;10.406;2023-04-01T02:28:01;4.80;;;2.67;;
2658;SDS011;1339;53.304;10.406;2023-04-01T02:30:29;2.75;;;2.55;;
2658;SDS011;1339;53.304;10.406;2023-04-01T02:32:56;5.28;;;2.97;;
2658;SDS011;1339;53.304;10.406;2023-04-01T02:35:23;2.55;;;2.30;;
2658;SDS011;1339;53.304;10.406;2023-04-01T02:37:52;3.67;;;2.50;;
2658;SDS011;1339;53.304;10.406;2023-04-01T02:40:19;2.75;;;2.55;;
2658;SDS011;1339;53.304;10.406;2023-04-01T02:42:46;3.28;;;2.22;;
2658;SDS011;1339;53.304;10.406;2023-04-01T02:45:14;6.80;;;4.90;;
2658;SDS011;1339;53.304;10.406;2023-04-01T02:47:42;5.70;;;2.85;;
2658;SDS011;1339;53.304;10.406;2023-04-01T02:50:09;3.33;;;2.90;;
2658;SDS011;1339;53.304;10.406;2023-04-01T02:52:36;4.03;;;3.25;;
2658;SDS011;1339;53.304;10.406;2023-04-01T02:55:03;6.20;;;2.75;;
2658;SDS011;1339;53.304;10.406;2023-04-01T02:57:30;3.08;;;2.53;;
2658;SDS011;1339;53.304;10.406;2023-04-01T02:59:57;9.48;;;3.55;;
2658;SDS011;1339;53.304;10.406;2023-04-01T03:02:26;6.05;;;2.88;;
2658;SDS011;1339;53.304;10.406;2023-04-01T03:04:53;6.40;;;3.60;;
2658;SDS011;1339;53.304;10.406;2023-04-01T03:07:20;3.33;;;3.03;;
2658;SDS011;1339;53.304;10.406;2023-04-01T03:09:47;4.95;;;3.05;;
2658;SDS011;1339;53.304;10.406;2023-04-01T03:12:14;4.95;;;3.60;;
2658;SDS011;1339;53.304;10.406;2023-04-01T03:14:41;4.95;;;2.83;;
2658;SDS011;1339;53.304;10.406;2023-04-01T03:17:08;3.38;;;3.03;;
2658;SDS011;1339;53.304;10.406;2023-04-01T03:19:36;4.07;;;3.25;;
2658;SDS011;1339;53.304;10.406;2023-04-01T03:22:03;5.28;;;3.50;;
2658;SDS011;1339;53.304;10.406;2023-04-01T03:24:30;4.65;;;2.80;;
2658;SDS011;1339;53.304;10.406;2023-04-01T03:26:57;7.22;;;3.40;;
2658;SDS011;1339;53.304;10.406;2023-04-01T03:29:24;4.25;;;3.75;;
2658;SDS011;1339;53.304;10.406;2023-04-01T03:31:51;4.93;;;3.67;;
2658;SDS011;1339;53.304;10.406;2023-04-01T03:34:18;4.22;;;3.00;;
2658;SDS011;1339;53.304;10.406;2023-04-01T03:36:46;3.45;;;3.10;;
2658;SDS011;1339;53.304;10.406;2023-04-01T03:39:13;4.07;;;3.30;;
2658;SDS011;1339;53.304;10.406;2023-04-01T03:41:43;5.28;;;3.70;;
2658;SDS011;1339;53.304;10.406;2023-04-01T03:44:10;9.55;;;3.85;;
2658;SDS011;1339;53.304;10.406;2023-04-01T03:46:37;6.38;;;4.00;;
2658;SDS011;1339;53.304;10.406;2023-04-01T03:49:06;3.28;;;2.97;;
2658;SDS011;1339;53.304;10.406;2023-04-01T03:51:36;4.53;;;3.70;;
2658;SDS011;1339;53.304;10.406;2023-04-01T03:54:04;6.85;;;3.60;;
2658;SDS011;1339;53.304;10.406;2023-04-01T03:56:31;5.07;;;3.55;;
2658;SDS011;1339;53.304;10.406;2023-04-01T03:58:58;8.15;;;4.00;;
2658;SDS011;1339;53.304;10.406;2023-04-01T04:01:28;5.95;;;3.35;;
2658;SDS011;1339;53.304;10.406;2023-04-01T04:03:55;4.03;;;2.65;;
2658;SDS011;1339;53.304;10.406;2023-04-01T04:06:22;3.50;;;3.05;;
2658;SDS011;1339;53.304;10.406;2023-04-01T04:08:49;6.07;;;4.45;;
2658;SDS011;1339;53.304;10.406;2023-04-01T04:11:18;4.75;;;3.42;;
2658;SDS011;1339;53.304;10.406;2023-04-01T04:13:45;4.20;;;3.80;;
2658;SDS011;1339;53.304;10.406;2023-04-01T04:16:13;4.78;;;3.30;;
2658;SDS011;1339;53.304;10.406;2023-04-01T04:18:41;3.70;;;3.00;;
2658;SDS011;1339;53.304;10.406;2023-04-01T04:21:10;3.20;;;2.90;;
2658;SDS011;1339;53.304;10.406;2023-04-01T04:23:37;6.40;;;3.10;;
2658;SDS011;1339;53.304;10.406;2023-04-01T04:26:05;3.97;;;3.58;;
2658;SDS011;1339;53.304;10.406;2023-04-01T04:28:33;5.80;;;4.25;;
2658;SDS011;1339;53.304;10.406;2023-04-01T04:31:01;4.80;;;3.25;;
2658;SDS011;1339;53.304;10.406;2023-04-01T04:33:29;3.83;;;3.53;;
2658;SDS011;1339;53.304;10.406;2023-04-01T04:35:57;4.75;;;4.30;;
2658;SDS011;1339;53.304;10.406;2023-04-01T04:38:24;5.22;;;3.50;;
2658;SDS011;1339;53.304;10.406;2023-04-01T04:40:52;4.10;;;3.70;;
2658;SDS011;1339;53.304;10.406;2023-04-01T04:43:19;6.55;;;4.03;;
2658;SDS011;1339;53.304;10.406;2023-04-01T04:45:47;4.78;;;3.90;;
2658;SDS011;1339;53.304;10.406;2023-04-01T04:48:14;5.25;;;4.03;;
2658;SDS011;1339;53.304;10.406;2023-04-01T04:50:43;6.47;;;4.35;;
2658;SDS011;1339;53.304;10.406;2023-04-01T04:53:10;6.65;;;4.90;;
2658;SDS011;1339;53.304;10.406;2023-04-01T04:55:37;7.10;;;5.00;;
2658;SDS011;1339;53.304;10.406;2023-04-01T04:58:04;5.80;;;5.10;;
2658;SDS011;1339;53.304;10.406;2023-04-01T05:00:31;6.13;;;4.85;;
2658;SDS011;1339;53.304;10.406;2023-04-01T05:03:00;5.68;;;5.18;;
2658;SDS011;1339;53.304;10.406;2023-04-01T05:05:27;6.78;;;4.40;;
2658;SDS011;1339;53.304;10.406;2023-04-01T05:07:54;5.45;;;4.95;;
2658;SDS011;1339;53.304;10.406;2023-04-01T05:10:21;7.72;;;4.95;;
2658;SDS011;1339;53.304;10.406;2023-04-01T05:12:48;4.07;;;3.67;;
2658;SDS011;1339;53.304;10.406;2023-04-01T05:15:15;10.95;;;5.38;;
2658;SDS011;1339;53.304;10.406;2023-04-01T05:17:42;6.60;;;4.45;;
2658;SDS011;1339;53.304;10.406;2023-04-01T05:20:12;7.57;;;4.95;;
2658;SDS011;1339;53.304;10.406;2023-04-01T05:22:39;7.32;;;4.43;;
2658;SDS011;1339;53.304;10.406;2023-04-01T05:25:07;6.25;;;4.70;;
2658;SDS011;1339;53.304;10.406;2023-04-01T05:27:33;10.07;;;5.45;;
2658;SDS011;1339;53.304;10.406;2023-04-01T05:30:01;5.22;;;4.40;;
2658;SDS011;1339;53.304;10.406;2023-04-01T05:32:28;6.00;;;4.95;;
2658;SDS011;1339;53.304;10.406;2023-04-01T05:34:55;8.35;;;4.47;;
2658;SDS011;1339;53.304;10.406;2023-04-01T05:37:23;5.35;;;4.95;;
2658;SDS011;1339;53.304;10.406;2023-04-01T05:39:50;5.15;;;4.65;;
2658;SDS011;1339;53.304;10.406;2023-04-01T05:42:17;5.80;;;5.20;;
2658;SDS011;1339;53.304;10.406;2023-04-01T05:44:44;5.07;;;4.68;;
2658;SDS011;1339;53.304;10.406;2023-04-01T05:47:11;5.22;;;3.95;;
2658;SDS011;1339;53.304;10.406;2023-04-01T05:49:38;4.95;;;4.03;;
2658;SDS011;1339;53.304;10.406;2023-04-01T05:52:05;5.38;;;4.93;;
2658;SDS011;1339;53.304;10.406;2023-04-01T05:54:33;5.28;;;4.78;;
2658;SDS011;1339;53.304;10.406;2023-04-01T05:57:00;8.48;;;6.63;;
2658;SDS011;1339;53.304;10.406;2023-04-01T05:59:27;8.40;;;4.20;;
2658;SDS011;1339;53.304;10.406;2023-04-01T06:01:56;8.55;;;5.25;;
2658;SDS011;1339;53.304;10.406;2023-04-01T06:04:23;6.70;;;4.40;;
2658;SDS011;1339;53.304;10.406;2023-04-01T06:06:50;5.65;;;4.50;;
2658;SDS011;1339;53.304;10.406;2023-04-01T06:09:18;6.78;;;5.25;;
2658;SDS011;1339;53.304;10.406;2023-04-01T06:11:55;9.38;;;4.93;;
2658;SDS011;1339;53.304;10.406;2023-04-01T06:14:27;10.93;;;5.20;;
2658;SDS011;1339;53.304;10.406;2023-04-01T06:17:00;7.30;;;4.50;;
2658;SDS011;1339;53.304;10.406;2023-04-01T06:19:33;7.35;;;4.82;;
2658;SDS011;1339;53.304;10.406;2023-04-01T06:22:14;11.02;;;7.03;;
2658;SDS011;1339;53.304;10.406;2023-04-01T06:24:47;11.32;;;10.10;;
2658;SDS011;1339;53.304;10.406;2023-04-01T06:27:20;9.27;;;8.20;;
2658;SDS011;1339;53.304;10.406;2023-04-01T06:29:55;7.60;;;6.80;;
2658;SDS011;1339;53.304;10.406;2023-04-01T06:32:38;5.60;;;4.82;;
2658;SDS011;1339;53.304;10.406;2023-04-01T06:35:26;6.13;;;5.63;;
2658;SDS011;1339;53.304;10.406;2023-04-01T06:38:00;12.45;;;9.27;;
2658;SDS011;1339;53.304;10.406;2023-04-01T06:40:36;5.20;;;4.80;;
2658;SDS011;1339;53.304;10.406;2023-04-01T06:43:10;3.67;;;3.35;;
2658;SDS011;1339;53.304;10.406;2023-04-01T06:45:41;4.13;;;3.83;;
2658;SDS011;1339;53.304;10.406;2023-04-01T06:48:15;3.30;;;3.00;;
2658;SDS011;1339;53.304;10.406;2023-04-01T06:50:48;2.90;;;2.70;;
2658;SDS011;1339;53.304;10.406;2023-04-01T06:53:19;2.47;;;2.28;;
2658;SDS011;1339;53.304;10.406;2023-04-01T06:55:48;2.70;;;2.50;;
2658;SDS011;1339;53.304;10.406;2023-04-01T06:58:20;2.90;;;2.70;;
2658;SDS011;1339;53.304;10.406;2023-04-01T07:00:48;3.72;;;2.70;;
2658;SDS011;1339;53.304;10.406;2023-04-01T07:03:19;3.10;;;2.80;;
2658;SDS011;1339;53.304;10.406;2023-04-01T07:05:47;3.10;;;2.80;;
2658;SDS011;1339;53.304;10.406;2023-04-01T07:08:16;1.90;;;1.80;;
2658;SDS011;1339;53.304;10.406;2023-04-01T07:10:45;2.35;;;1.85;;
2658;SDS011;1339;53.304;10.406;2023-04-01T07:13:15;1.63;;;1.45;;
2658;SDS011;1339;53.304;10.406;2023-04-01T07:15:47;2.17;;;1.98;;
2658;SDS011;1339;53.304;10.406;2023-04-01T07:18:16;1.55;;;1.42;;
2658;SDS011;1339;53.304;10.406;2023-04-01T07:20:44;1.77;;;1.67;;
2658;SDS011;1339;53.304;10.406;2023-04-01T07:23:13;2.08;;;1.77;;
2658;SDS011;1339;53.304;10.406;2023-04-01T07:25:44;2.05;;;1.90;;
2658;SDS011;1339;53.304;10.406;2023-04-01T07:28:12;1.30;;;1.20;;
2658;SDS011;1339;53.304;10.406;2023-04-01T07:30:43;1.42;;;1.33;;
2658;SDS011;1339;53.304;10.406;2023-04-01T07:33:13;1.60;;;1.50;;
2658;SDS011;1339;53.304;10.406;2023-04-01T07:35:42;1.50;;;1.40;;
2658;SDS011;1339;53.304;10.406;2023-04-01T07:38:14;1.58;;;1.48;;
2658;SDS011;1339;53.304;10.406;2023-04-01T07:40:45;1.30;;;1.20;;
2658;SDS011;1339;53.304;10.406;2023-04-01T07:43:18;1.30;;;1.17;;
2658;SDS011;1339;53.304;10.406;2023-04-01T07:45:49;1.60;;;1.50;;
2658;SDS011;1339;53.304;10.406;2023-04-01T07:48:22;1.33;;;1.23;;
2658;SDS011;1339;53.304;10.406;2023-04-01T07:50:52;1.55;;;1.45;;
2658;SDS011;1339;53.304;10.406;2023-04-01T07:53:22;1.30;;;1.20;;
2658;SDS011;1339;53.304;10.406;2023-04-01T07:55:53;2.25;;;1.20;;
2658;SDS011;1339;53.304;10.406;2023-04-01T07:58:23;1.80;;;1.60;;
2658;SDS011;1339;53.304;10.406;2023-04-01T08:00:54;1.75;;;1.20;;
2658;SDS011;1339;53.304;10.406;2023-04-01T08:03:33;1.55;;;1.45;;
2658;SDS011;1339;53.304;10.406;2023-04-01T08:06:03;1.20;;;1.10;;
2658;SDS011;1339;53.304;10.406;2023-04-01T08:08:35;1.35;;;1.20;;
2658;SDS011;1339;53.304;10.406;2023-04-01T08:11:08;1.10;;;1.00;;
2658;SDS011;1339;53.304;10.406;2023-04-01T08:13:39;3.13;;;1.30;;
2658;SDS011;1339;53.304;10.406;2023-04-01T08:16:09;1.38;;;1.20;;
2658;SDS011;1339;53.304;10.406;2023-04-01T08:18:41;1.48;;;1.38;;
2658;SDS011;1339;53.304;10.406;2023-04-01T08:21:10;1.73;;;1.55;;
2658;SDS011;1339;53.304;10.406;2023-04-01T08:23:40;1.13;;;1.02;;
2658;SDS011;1339;53.304;10.406;2023-04-01T08:26:10;3.60;;;3.30;;
2658;SDS011;1339;53.304;10.406;2023-04-01T08:28:41;4.50;;;3.75;;
2658;SDS011;1339;53.304;10.406;2023-04-01T08:31:11;3.33;;;3.03;;
2658;SDS011;1339;53.304;10.406;2023-04-01T08:33:40;3.55;;;2.30;;
2658;SDS011;1339;53.304;10.406;2023-04-01T08:36:09;1.63;;;1.50;;
2658;SDS011;1339;53.304;10.406;2023-04-01T08:38:38;2.20;;;2.10;;
2658;SDS011;1339;53.304;10.406;2023-04-01T08:41:12;1.92;;;1.83;;
2658;SDS011;1339;53.304;10.406;2023-04-01T08:43:46;1.73;;;1.63;;
2658;SDS011;1339;53.304;10.406;2023-04-01T08:46:26;2.08;;;1.92;;
2658;SDS011;1339;53.304;10.406;2023-04-01T08:49:02;2.60;;;2.40;;
2658;SDS011;1339;53.304;10.406;2023-04-01T08:51:43;2.63;;;2.42;;
2658;SDS011;1339;53.304;10.406;2023-04-01T08:54:16;3.75;;;3.45;;
2658;SDS011;1339;53.304;10.406;2023-04-01T08:56:53;2.25;;;1.75;;
2658;SDS011;1339;53.304;10.406;2023-04-01T08:59:26;2.00;;;1.80;;
2658;SDS011;1339;53.304;10.406;2023-04-01T09:02:00;2.05;;;1.30;;
2658;SDS011;1339;53.304;10.406;2023-04-01T09:04:37;1.73;;;1.60;;
2658;SDS011;1339;53.304;10.406;2023-04-01T09:07:10;1.73;;;1.60;;
2658;SDS011;1339;53.304;10.406;2023-04-01T09:09:54;1.75;;;1.65;;
2658;SDS011;1339;53.304;10.406;2023-04-01T09:15:20;1.60;;;1.50;;
2658;SDS011;1339;53.304;10.406;2023-04-01T09:18:00;1.88;;;1.77;;
2658;SDS011;1339;53.304;10.406;2023-04-01T09:20:39;1.70;;;1.60;;
2658;SDS011;1339;53.304;10.406;2023-04-01T09:23:15;2.00;;;1.80;;
2658;SDS011;1339;53.304;10.406;2023-04-01T09:25:50;1.60;;;1.50;;
2658;SDS011;1339;53.304;10.406;2023-04-01T09:28:24;1.85;;;1.75;;
2658;SDS011;1339;53.304;10.406;2023-04-01T09:31:05;3.10;;;1.55;;
2658;SDS011;1339;53.304;10.406;2023-04-01T09:36:42;1.60;;;1.48;;
2658;SDS011;1339;53.304;10.406;2023-04-01T09:39:18;1.67;;;1.58;;
2658;SDS011;1339;53.304;10.406;2023-04-01T09:41:54;3.03;;;2.75;;
2658;SDS011;1339;53.304;10.406;2023-04-01T09:44:25;1.65;;;1.52;;
2658;SDS011;1339;53.304;10.406;2023-04-01T09:46:59;2.10;;;2.00;;
2658;SDS011;1339;53.304;10.406;2023-04-01T09:49:40;3.15;;;2.53;;
2658;SDS011;1339;53.304;10.406;2023-04-01T09:52:17;3.33;;;2.95;;
2658;SDS011;1339;53.304;10.406;2023-04-01T09:54:58;3.58;;;3.33;;
2658;SDS011;1339;53.304;10.406;2023-04-01T10:00:25;2.83;;;2.53;;
2658;SDS011;1339;53.304;10.406;2023-04-01T10:03:13;3.05;;;2.83;;
2658;SDS011;1339;53.304;10.406;2023-04-01T10:05:52;2.10;;;2.00;;
2658;SDS011;1339;53.304;10.406;2023-04-01T10:11:16;2.35;;;2.15;;
2658;SDS011;1339;53.304;10.406;2023-04-01T10:14:07;2.15;;;2.00;;
2658;SDS011;1339;53.304;10.406;2023-04-01T10:16:42;1.73;;;1.63;;
2658;SDS011;1339;53.304;10.406;2023-04-01T10:19:39;2.40;;;2.20;;
2658;SDS011;1339;53.304;10.406;2023-04-01T10:25:27;6.13;;;4.30;;
2658;SDS011;1339;53.304;10.406;2023-04-01T10:28:14;3.72;;;3.53;;
2658;SDS011;1339;53.304;10.406;2023-04-01T10:33:37;2.67;;;2.47;;
2658;SDS011;1339;53.304;10.406;2023-04-01T10:36:09;1.85;;;1.75;;
2658;SDS011;1339;53.304;10.406;2023-04-01T10:50:18;2.00;;;1.85;;
2658;SDS011;1339;53.304;10.406;2023-04-01T10:53:01;2.42;;;2.33;;
2658;SDS011;1339;53.304;10.406;2023-04-01T10:55:37;2.30;;;2.20;;
2658;SDS011;1339;53.304;10.406;2023-04-01T10:58:22;2.17;;;2.05;;
2658;SDS011;1339;53.304;10.406;2023-04-01T11:01:07;1.70;;;1.60;;
2658;SDS011;1339;53.304;10.406;2023-04-01T11:03:46;2.22;;;2.10;;
2658;SDS011;1339;53.304;10.406;2023-04-01T11:06:47;2.00;;;1.88;;
2658;SDS011;1339;53.304;10.406;2023-04-01T11:09:29;2.30;;;2.10;;
2658;SDS011;1339;53.304;10.406;2023-04-01T11:12:13;1.90;;;1.80;;
2658;SDS011;1339;53.304;10.406;2023-04-01T11:14:47;2.10;;;2.00;;
2658;SDS011;1339;53.304;10.406;2023-04-01T11:17:33;3.60;;;2.08;;
2658;SDS011;1339;53.304;10.406;2023-04-01T11:20:17;4.00;;;3.25;;
2658;SDS011;1339;53.304;10.406;2023-04-01T11:22:53;3.95;;;3.55;;
2658;SDS011;1339;53.304;10.406;2023-04-01T11:28:06;4.43;;;3.95;;
2658;SDS011;1339;53.304;10.406;2023-04-01T11:30:45;6.65;;;5.20;;
2658;SDS011;1339;53.304;10.406;2023-04-01T11:33:17;5.50;;;3.85;;
2658;SDS011;1339;53.304;10.406;2023-04-01T11:38:42;7.15;;;5.07;;
2658;SDS011;1339;53.304;10.406;2023-04-01T11:41:16;3.95;;;2.72;;
2658;SDS011;1339;53.304;10.406;2023-04-01T11:43:49;4.68;;;3.13;;
2658;SDS011;1339;53.304;10.406;2023-04-01T11:46:21;9.98;;;5.72;;
2658;SDS011;1339;53.304;10.406;2023-04-01T11:48:52;5.53;;;3.17;;
2658;SDS011;1339;53.304;10.406;2023-04-01T11:51:29;5.35;;;3.38;;
2658;SDS011;1339;53.304;10.406;2023-04-01T11:54:03;10.85;;;4.57;;
2658;SDS011;1339;53.304;10.406;2023-04-01T11:56:37;4.85;;;3.90;;
2658;SDS011;1339;53.304;10.406;2023-04-01T12:01:50;5.45;;;3.08;;
2658;SDS011;1339;53.304;10.406;2023-04-01T12:04:32;12.63;;;5.38;;
2658;SDS011;1339;53.304;10.406;2023-04-01T12:07:06;14.38;;;6.90;;
2658;SDS011;1339;53.304;10.406;2023-04-01T12:09:40;6.85;;;4.18;;
2658;SDS011;1339;53.304;10.406;2023-04-01T12:12:12;4.70;;;3.85;;
2658;SDS011;1339;53.304;10.406;2023-04-01T12:14:47;6.20;;;3.30;;
2658;SDS011;1339;53.304;10.406;2023-04-01T12:17:20;4.88;;;3.40;;
2658;SDS011;1339;53.304;10.406;2023-04-01T12:19:53;5.65;;;2.75;;
2658;SDS011;1339;53.304;10.406;2023-04-01T12:22:27;3.25;;;2.95;;
2658;SDS011;1339;53.304;10.406;2023-04-01T12:25:04;3.05;;;2.58;;
2658;SDS011;1339;53.304;10.406;2023-04-01T12:27:41;2.92;;;2.38;;
2658;SDS011;1339;53.304;10.406;2023-04-01T12:30:14;3.50;;;3.20;;
2658;SDS011;1339;53.304;10.406;2023-04-01T12:32:45;3.15;;;2.85;;
2658;SDS011;1339;53.304;10.406;2023-04-01T12:35:18;3.55;;;3.25;;
2658;SDS011;1339;53.304;10.406;2023-04-01T12:37:48;3.00;;;2.65;;
2658;SDS011;1339;53.304;10.406;2023-04-01T12:40:23;4.05;;;2.95;;
2658;SDS011;1339;53.304;10.406;2023-04-01T12:42:57;4.72;;;4.00;;
2658;SDS011;1339;53.304;10.406;2023-04-01T12:45:30;3.80;;;3.50;;
2658;SDS011;1339;53.304;10.406;2023-04-01T12:48:06;3.90;;;3.50;;
2658;SDS011;1339;53.304;10.406;2023-04-01T12:50:40;8.07;;;3.85;;
2658;SDS011;1339;53.304;10.406;2023-04-01T12:53:17;4.63;;;4.22;;
2658;SDS011;1339;53.304;10.406;2023-04-01T12:55:49;3.60;;;3.30;;
2658;SDS011;1339;53.304;10.406;2023-04-01T13:01:18;5.28;;;3.60;;
2658;SDS011;1339;53.304;10.406;2023-04-01T13:03:53;5.05;;;3.50;;
2658;SDS011;1339;53.304;10.406;2023-04-01T13:06:27;4.53;;;4.10;;
2658;SDS011;1339;53.304;10.406;2023-04-01T13:08:59;8.93;;;5.57;;
2658;SDS011;1339;53.304;10.406;2023-04-01T13:11:34;7.65;;;5.22;;
2658;SDS011;1339;53.304;10.406;2023-04-01T13:14:09;6.03;;;4.55;;
2658;SDS011;1339;53.304;10.406;2023-04-01T13:16:43;6.70;;;4.47;;
2658;SDS011;1339;53.304;10.406;2023-04-01T13:19:13;9.52;;;7.00;;
2658;SDS011;1339;53.304;10.406;2023-04-01T13:21:46;9.85;;;6.22;;
2658;SDS011;1339;53.304;10.406;2023-04-01T13:24:25;8.25;;;5.20;;
2658;SDS011;1339;53.304;10.406;2023-04-01T13:26:55;8.50;;;4.88;;
2658;SDS011;1339;53.304;10.406;2023-04-01T13:29:23;9.25;;;5.55;;
2658;SDS011;1339;53.304;10.406;2023-04-01T13:31:59;8.15;;;5.05;;
2658;SDS011;1339;53.304;10.406;2023-04-01T13:34:32;5.60;;;4.68;;
2658;SDS011;1339;53.304;10.406;2023-04-01T13:37:10;9.40;;;5.20;;
2658;SDS011;1339;53.304;10.406;2023-04-01T13:39:44;13.32;;;6.95;;
2658;SDS011;1339;53.304;10.406;2023-04-01T13:42:18;4.93;;;4.18;;
2658;SDS011;1339;53.304;10.406;2023-04-01T13:44:51;5.63;;;4.07;;
2658;SDS011;1339;53.304;10.406;2023-04-01T13:50:08;5.63;;;4.43;;
2658;SDS011;1339;53.304;10.406;2023-04-01T13:52:50;8.38;;;5.63;;
2658;SDS011;1339;53.304;10.406;2023-04-01T13:58:10;14.18;;;7.03;;
2658;SDS011;1339;53.304;10.406;2023-04-01T14:00:50;4.43;;;4.03;;
2658;SDS011;1339;53.304;10.406;2023-04-01T14:03:28;8.43;;;6.35;;
2658;SDS011;1339;53.304;10.406;2023-04-01T14:06:06;7.80;;;5.50;;
2658;SDS011;1339;53.304;10.406;2023-04-01T14:08:41;15.02;;;7.43;;
2658;SDS011;1339;53.304;10.406;2023-04-01T14:11:13;4.90;;;3.97;;
2658;SDS011;1339;53.304;10.406;2023-04-01T14:13:46;4.68;;;4.28;;
2658;SDS011;1339;53.304;10.406;2023-04-01T14:16:27;3.88;;;3.30;;
2658;SDS011;1339;53.304;10.406;2023-04-01T14:19:00;3.90;;;2.95;;
2658;SDS011;1339;53.304;10.406;2023-04-01T14:21:33;3.97;;;3.00;;
2658;SDS011;1339;53.304;10.406;2023-04-01T14:27:05;5.45;;;3.78;;
2658;SDS011;1339;53.304;10.406;2023-04-01T14:29:38;4.13;;;3.35;;
2658;SDS011;1339;53.304;10.406;2023-04-01T14:32:12;4.35;;;4.05;;
2658;SDS011;1339;53.304;10.406;2023-04-01T14:34:47;3.67;;;3.38;;
2658;SDS011;1339;53.304;10.406;2023-04-01T14:37:17;4.93;;;4.20;;
2658;SDS011;1339;53.304;10.406;2023-04-01T14:39:49;3.22;;;2.95;;
2658;SDS011;1339;53.304;10.406;2023-04-01T14:42:25;4.30;;;3.92;;
2658;SDS011;1339;53.304;10.406;2023-04-01T14:45:05;4.05;;;3.00;;
2658;SDS011;1339;53.304;10.406;2023-04-01T14:47:43;2.90;;;2.60;;
2658;SDS011;1339;53.304;10.406;2023-04-01T14:50:13;4.95;;;4.20;;
2658;SDS011;1339;53.304;10.406;2023-04-01T14:52:42;6.50;;;4.88;;
2658;SDS011;1339;53.304;10.406;2023-04-01T14:55:20;4.25;;;3.65;;
2658;SDS011;1339;53.304;10.406;2023-04-01T14:57:57;5.18;;;4.53;;
2658;SDS011;1339;53.304;10.406;2023-04-01T15:00:26;7.32;;;6.10;;
2658;SDS011;1339;53.304;10.406;2023-04-01T15:02:55;9.85;;;7.28;;
2658;SDS011;1339;53.304;10.406;2023-04-01T15:05:28;5.13;;;4.50;;
2658;SDS011;1339;53.304;10.406;2023-04-01T15:08:01;5.28;;;4.05;;
2658;SDS011;1339;53.304;10.406;2023-04-01T15:10:32;4.55;;;4.10;;
2658;SDS011;1339;53.304;10.406;2023-04-01T15:13:05;5.30;;;4.05;;
2658;SDS011;1339;53.304;10.406;2023-04-01T15:15:39;7.68;;;4.55;;
2658;SDS011;1339;53.304;10.406;2023-04-01T15:18:11;6.50;;;4.50;;
2658;SDS011;1339;53.304;10.406;2023-04-01T15:20:53;5.18;;;4.68;;
2658;SDS011;1339;53.304;10.406;2023-04-01T15:23:27;7.10;;;4.05;;
2658;SDS011;1339;53.304;10.406;2023-04-01T15:26:06;5.35;;;4.90;;
2658;SDS011;1339;53.304;10.406;2023-04-01T15:28:39;5.88;;;4.95;;
2658;SDS011;1339;53.304;10.406;2023-04-01T15:31:09;4.97;;;3.88;;
2658;SDS011;1339;53.304;10.406;2023-04-01T15:33:43;5.28;;;4.57;;
2658;SDS011;1339;53.304;10.406;2023-04-01T15:36:16;5.35;;;4.93;;
2658;SDS011;1339;53.304;10.406;2023-04-01T15:38:48;6.20;;;5.60;;
2658;SDS011;1339;53.304;10.406;2023-04-01T15:41:16;5.43;;;4.72;;
2658;SDS011;1339;53.304;10.406;2023-04-01T15:43:44;6.88;;;5.93;;
2658;SDS011;1339;53.304;10.406;2023-04-01T15:49:04;7.05;;;4.97;;
2658;SDS011;1339;53.304;10.406;2023-04-01T15:51:39;8.02;;;5.35;;
2658;SDS011;1339;53.304;10.406;2023-04-01T15:57:02;7.88;;;5.65;;
2658;SDS011;1339;53.304;10.406;2023-04-01T15:59:41;7.05;;;5.28;;
2658;SDS011;1339;53.304;10.406;2023-04-01T16:02:15;6.15;;;4.95;;
2658;SDS011;1339;53.304;10.406;2023-04-01T16:04:51;8.68;;;4.95;;
2658;SDS011;1339;53.304;10.406;2023-04-01T16:07:24;6.75;;;5.00;;
2658;SDS011;1339;53.304;10.406;2023-04-01T16:09:57;8.45;;;5.63;;
2658;SDS011;1339;53.304;10.406;2023-04-01T16:12:32;8.05;;;6.82;;
2658;SDS011;1339;53.304;10.406;2023-04-01T16:15:06;6.70;;;5.85;;
2658;SDS011;1339;53.304;10.406;2023-04-01T16:17:44;5.63;;;5.13;;
2658;SDS011;1339;53.304;10.406;2023-04-01T16:20:17;7.07;;;5.20;;
2658;SDS011;1339;53.304;10.406;2023-04-01T16:22:48;6.40;;;4.95;;
2658;SDS011;1339;53.304;10.406;2023-04-01T16:25:20;8.05;;;6.05;;
2658;SDS011;1339;53.304;10.406;2023-04-01T16:27:50;7.47;;;5.25;;